Terminal Aerodrome Forecast
Issued by NWS Greer, SC

Current Version | Previous Version | Text Only | Print | Product List | Glossary On
Versions: 1 2 3 4 5 6 7 8 9 10 11 12 13 14 15 16 17 18 19 20 21 22 23 24 25 26 27 28 29
000
FTUS42 KGSP 112330
TAFAVL
TAF
KAVL 112330Z 1200/1224 34011KT P6SM FEW200
     FM120500 35005KT P6SM BKN100
     FM121000 34003KT P6SM -SN OVC025
     FM122000 32006KT P6SM SCT025 BKN035
     FM122100 32008KT P6SM OVC050=

USA.gov is the U.S. government's official web portal to all federal, state and local government web resources and services.